Painted Post, New York
Current Conditions -  °F | °C
As of 11:53 PM on Monday 22 Dec 2014 (Local Time) from KELM Reporting Station
Light Rain Light Rain  
Wind Chill: 35°   Ceiling: 3800
Heat Index: 35°   Visibility: 6mi
Dew Point: 33°   Wind: 3mph
Humidity: 92%   Direction: 30°NNE
Pressure: 30.09"   Gusts: NA
Location:  42.16°N, 77.09°W
Report Text: KELM 230453Z AUTO 03003KT 6SM -RA BR FEW030 OVC038 02/01 A3009 RMK AO2 SLP198 P0000 T00170006 400281039
Loading
Personal Weather Stations






























Interactive Weather Map New forecast layout! Learn more

10-Day Weather Forecast

Advertisements
Track Severe Weather on mobile